createdAt,value
2019-05-19T00:00:09.266Z,47.26
2019-05-19T00:05:13.109Z,47.26
2019-05-19T00:10:16.895Z,47.07
2019-05-19T00:15:20.763Z,47.11
2019-05-19T00:20:24.533Z,47.48
2019-05-19T00:25:28.335Z,47.31
2019-05-19T00:30:32.177Z,46.93
2019-05-19T00:35:35.994Z,47.30
2019-05-19T00:40:39.792Z,47.39
2019-05-19T00:45:43.575Z,47.62
2019-05-19T00:50:47.439Z,47.57
2019-05-19T00:55:51.743Z,47.47
2019-05-19T01:00:55.688Z,47.45
2019-05-19T01:05:59.487Z,47.34
2019-05-19T01:11:03.277Z,47.21
2019-05-19T01:16:07.106Z,47.84
2019-05-19T01:21:11.078Z,47.75
2019-05-19T01:26:14.851Z,47.75
2019-05-19T01:31:18.728Z,48.04
2019-05-19T01:36:22.586Z,48.02
2019-05-19T01:41:26.416Z,47.76
2019-05-19T01:46:30.353Z,47.52
2019-05-19T01:51:34.355Z,47.57
2019-05-19T01:56:38.183Z,47.77
2019-05-19T02:01:41.960Z,47.76
2019-05-19T02:06:45.748Z,47.27
2019-05-19T02:11:49.511Z,47.57
2019-05-19T02:16:53.294Z,47.57
2019-05-19T02:21:57.158Z,47.54
2019-05-19T02:27:00.954Z,47.52
2019-05-19T02:32:04.813Z,47.52
2019-05-19T02:37:08.669Z,47.64
2019-05-19T02:42:12.812Z,47.48
2019-05-19T02:47:16.583Z,47.48
2019-05-19T02:52:20.818Z,47.53
2019-05-19T02:57:24.753Z,47.48
2019-05-19T03:02:28.554Z,47.58
2019-05-19T03:07:32.392Z,47.29
2019-05-19T03:12:36.214Z,47.38
2019-05-19T03:17:40.151Z,47.68
2019-05-19T03:22:43.949Z,47.88
2019-05-19T03:27:47.791Z,47.88
2019-05-19T03:32:58.693Z,48.12
2019-05-19T03:38:02.524Z,48.07
2019-05-19T03:43:06.338Z,48.08
2019-05-19T03:48:10.226Z,48.23
2019-05-19T03:53:14.085Z,48.23
2019-05-19T03:58:17.881Z,48.19
2019-05-19T04:03:21.708Z,47.91
2019-05-19T04:08:25.493Z,48.10
2019-05-19T04:13:29.288Z,47.90
2019-05-19T04:18:33.097Z,47.90
2019-05-19T04:23:36.988Z,47.91
2019-05-19T04:28:40.806Z,48.03
2019-05-19T04:33:44.612Z,48.43
2019-05-19T04:38:48.473Z,48.43
2019-05-19T04:43:52.352Z,47.71
2019-05-19T04:48:56.137Z,48.36
2019-05-19T04:53:59.953Z,48.05
2019-05-19T04:59:03.748Z,48.05
2019-05-19T05:04:07.556Z,48.23
2019-05-19T05:09:11.330Z,48.60
2019-05-19T05:14:15.108Z,48.60
2019-05-19T05:19:18.878Z,48.45
2019-05-19T05:24:22.679Z,48.98
2019-05-19T05:29:26.520Z,48.98
2019-05-19T05:34:30.284Z,48.58
2019-05-19T05:39:34.165Z,49.00
2019-05-19T05:44:37.966Z,48.62
2019-05-19T05:49:41.785Z,49.02
2019-05-19T05:54:45.676Z,49.02
2019-05-19T05:59:49.768Z,49.35
2019-05-19T06:04:53.631Z,48.85
2019-05-19T06:09:57.500Z,48.85
2019-05-19T06:15:01.383Z,49.73
2019-05-19T06:20:05.449Z,49.23
2019-05-19T06:25:09.575Z,49.19
2019-05-19T06:30:13.360Z,49.19
2019-05-19T06:35:17.540Z,49.43
2019-05-19T06:40:21.329Z,49.43
2019-05-19T06:45:25.203Z,49.25
2019-05-19T06:50:29.038Z,49.25
2019-05-19T06:55:32.866Z,49.29
2019-05-19T07:00:36.655Z,49.13
2019-05-19T07:05:40.451Z,49.08
2019-05-19T07:10:44.304Z,47.21
2019-05-19T07:15:48.110Z,46.88
2019-05-19T07:20:51.957Z,46.88
2019-05-19T07:25:55.762Z,46.51
2019-05-19T07:30:59.574Z,45.77
2019-05-19T07:36:03.439Z,45.90
2019-05-19T07:41:07.302Z,46.33
2019-05-19T07:46:11.176Z,46.33
2019-05-19T07:51:15.002Z,46.68
2019-05-19T07:56:18.807Z,46.38
2019-05-19T08:01:22.657Z,46.11
2019-05-19T08:06:26.482Z,46.11
2019-05-19T08:11:30.420Z,46.02
2019-05-19T08:16:34.708Z,46.02
2019-05-19T08:21:38.520Z,46.06
2019-05-19T08:26:42.324Z,46.06
2019-05-19T08:31:46.154Z,46.77
2019-05-19T08:36:49.976Z,46.77
2019-05-19T08:41:53.973Z,46.59
2019-05-19T08:46:57.901Z,46.83
2019-05-19T08:52:01.790Z,47.09
2019-05-19T08:57:05.623Z,46.62
2019-05-19T09:02:09.437Z,46.62
2019-05-19T09:07:13.238Z,46.86
2019-05-19T09:12:17.038Z,46.86
2019-05-19T09:17:21.645Z,46.29
2019-05-19T09:22:25.463Z,46.55
2019-05-19T09:27:29.367Z,46.45
2019-05-19T09:32:33.169Z,46.35
2019-05-19T09:37:37.029Z,47.02
2019-05-19T09:42:40.843Z,46.82
2019-05-19T09:47:44.649Z,46.78
2019-05-19T09:52:48.442Z,47.42
2019-05-19T09:57:52.264Z,47.42
2019-05-19T10:02:56.069Z,49.47
2019-05-19T10:07:59.908Z,47.37
2019-05-19T10:13:03.847Z,47.37
2019-05-19T10:18:07.641Z,47.39
2019-05-19T10:23:11.445Z,47.39
2019-05-19T10:28:15.421Z,47.38
2019-05-19T10:33:19.297Z,47.38
2019-05-19T10:38:23.101Z,48.56
2019-05-19T10:43:26.942Z,48.41
2019-05-19T10:48:30.777Z,49.60
2019-05-19T10:53:34.624Z,50.70
2019-05-19T10:58:38.439Z,52.19
2019-05-19T11:03:42.246Z,51.81
2019-05-19T11:08:46.232Z,45.90
2019-05-19T11:13:50.037Z,45.90
2019-05-19T11:18:53.873Z,46.11
2019-05-19T11:23:57.696Z,46.08
2019-05-19T11:29:01.513Z,46.34
2019-05-19T11:34:05.332Z,46.34
2019-05-19T11:39:09.660Z,46.50
2019-05-19T11:44:13.477Z,46.51
2019-05-19T11:49:17.289Z,46.89
2019-05-19T11:54:21.087Z,47.23
2019-05-19T11:59:24.889Z,47.18
2019-05-19T12:04:28.769Z,47.13
2019-05-19T12:09:32.594Z,47.74
2019-05-19T12:14:36.419Z,47.84
2019-05-19T12:19:40.319Z,47.32
2019-05-19T12:24:44.157Z,47.35
2019-05-19T12:29:50.456Z,47.35
2019-05-19T12:34:54.265Z,47.12
2019-05-19T12:39:58.075Z,47.00
2019-05-19T12:45:02.017Z,46.59
2019-05-19T12:50:06.610Z,46.59
2019-05-19T12:55:10.842Z,46.55
2019-05-19T13:00:14.700Z,46.57
2019-05-19T13:05:18.495Z,46.42
2019-05-19T13:10:22.313Z,46.81
2019-05-19T13:15:26.114Z,46.81
2019-05-19T13:20:29.935Z,46.27
2019-05-19T13:25:33.740Z,46.13
2019-05-19T13:30:37.549Z,45.97
2019-05-19T13:35:41.433Z,46.05
2019-05-19T13:40:45.243Z,46.96
2019-05-19T13:45:49.085Z,46.36
2019-05-19T13:50:52.928Z,46.36
2019-05-19T13:55:56.836Z,46.18
2019-05-19T14:01:00.755Z,46.74
2019-05-19T14:06:04.616Z,46.47
2019-05-19T14:11:08.496Z,46.47
2019-05-19T14:16:12.298Z,46.31
2019-05-19T14:21:16.085Z,46.31
2019-05-19T14:26:19.981Z,46.22
2019-05-19T14:31:23.861Z,46.22
2019-05-19T14:36:27.676Z,46.43
2019-05-19T14:41:34.821Z,46.43
2019-05-19T14:46:38.714Z,45.95
2019-05-19T14:51:42.546Z,45.99
2019-05-19T14:56:46.335Z,45.99
2019-05-19T15:01:50.214Z,45.69
2019-05-19T15:06:54.038Z,46.03
2019-05-19T15:11:57.875Z,45.94
2019-05-19T15:17:01.689Z,45.94
2019-05-19T15:22:05.616Z,45.91
2019-05-19T15:27:09.511Z,46.06
2019-05-19T15:32:13.344Z,45.96
2019-05-19T15:37:17.235Z,46.46
2019-05-19T15:42:21.041Z,46.46
2019-05-19T15:47:24.870Z,46.00
2019-05-19T15:52:28.670Z,46.19
2019-05-19T15:57:32.591Z,45.77
2019-05-19T16:02:36.407Z,45.77
2019-05-19T16:07:40.519Z,46.21
2019-05-19T16:12:44.340Z,46.03
2019-05-19T16:17:48.141Z,45.63
2019-05-19T16:22:52.041Z,45.63
2019-05-19T16:27:55.858Z,45.70
2019-05-19T16:32:59.712Z,45.77
2019-05-19T16:38:03.639Z,45.76
2019-05-19T16:43:07.863Z,43.87
2019-05-19T16:48:11.657Z,43.87
2019-05-19T16:53:15.423Z,42.44
2019-05-19T16:58:21.425Z,40.93
2019-05-19T17:03:24.734Z,40.31
2019-05-19T17:08:28.557Z,39.89
2019-05-19T17:13:32.329Z,39.07
2019-05-19T17:18:36.134Z,39.07
2019-05-19T17:23:39.915Z,39.32
2019-05-19T17:28:43.680Z,39.32
2019-05-19T17:33:47.589Z,39.93
2019-05-19T17:38:51.435Z,39.93
2019-05-19T17:43:55.408Z,40.09
2019-05-19T17:48:59.197Z,39.96
2019-05-19T17:54:02.992Z,39.98
2019-05-19T17:59:16.143Z,39.21
2019-05-19T18:04:12.285Z,39.21
2019-05-19T18:09:16.073Z,39.30
2019-05-19T18:14:19.842Z,39.73
2019-05-19T18:19:23.666Z,39.73
2019-05-19T18:24:27.436Z,39.79
2019-05-19T18:29:31.830Z,39.79
2019-05-19T18:34:35.721Z,41.37
2019-05-19T18:39:39.516Z,41.03
2019-05-19T18:44:43.291Z,41.71
2019-05-19T18:49:47.081Z,41.38
2019-05-19T18:54:50.993Z,41.53
2019-05-19T18:59:54.982Z,41.38
2019-05-19T19:04:58.762Z,41.38
2019-05-19T19:10:02.558Z,42.39
2019-05-19T19:15:06.576Z,42.39
2019-05-19T19:20:10.351Z,43.03
2019-05-19T19:25:14.175Z,43.29
2019-05-19T19:30:17.993Z,43.04
2019-05-19T19:35:21.837Z,43.60
2019-05-19T19:40:29.458Z,43.04
2019-05-19T19:45:33.327Z,43.24
2019-05-19T19:50:37.176Z,43.91
2019-05-19T19:55:40.949Z,43.30
2019-05-19T20:00:45.302Z,44.12
2019-05-19T20:05:49.184Z,44.09
2019-05-19T20:10:52.965Z,44.09
2019-05-19T20:15:56.820Z,43.89
2019-05-19T20:21:00.704Z,44.34
2019-05-19T20:26:04.542Z,44.25
2019-05-19T20:31:08.378Z,44.25
2019-05-19T20:36:12.167Z,44.01
2019-05-19T20:41:16.053Z,43.90
2019-05-19T20:46:20.028Z,43.90
2019-05-19T20:51:23.880Z,44.74
2019-05-19T20:56:27.706Z,45.33
2019-05-19T21:01:31.507Z,44.58
2019-05-19T21:06:35.322Z,44.50
2019-05-19T21:11:39.101Z,44.84
2019-05-19T21:16:42.898Z,44.63
2019-05-19T21:21:46.734Z,44.15
2019-05-19T21:26:50.551Z,44.18
2019-05-19T21:31:54.433Z,44.18
2019-05-19T21:36:58.486Z,44.65
2019-05-19T21:42:02.299Z,44.83
2019-05-19T21:47:06.101Z,44.83
2019-05-19T21:52:09.941Z,44.74
2019-05-19T21:57:13.772Z,43.99
2019-05-19T22:02:17.833Z,43.79
2019-05-19T22:07:32.206Z,43.79
2019-05-19T22:12:36.001Z,43.79
2019-05-19T22:17:40.064Z,43.79
2019-05-19T22:22:43.893Z,44.24
2019-05-19T22:27:47.762Z,44.34
2019-05-19T22:32:51.556Z,44.52
2019-05-19T22:37:56.576Z,44.52
2019-05-19T22:43:00.388Z,44.49
2019-05-19T22:48:04.207Z,44.70
2019-05-19T22:53:08.000Z,44.41
2019-05-19T22:58:11.818Z,43.94
2019-05-19T23:03:15.619Z,44.15
2019-05-19T23:08:19.421Z,44.12
2019-05-19T23:13:23.244Z,44.12
2019-05-19T23:18:27.110Z,44.46
2019-05-19T23:23:30.931Z,44.34
2019-05-19T23:28:34.833Z,44.50
2019-05-19T23:33:38.701Z,44.50
2019-05-19T23:38:42.505Z,44.25
2019-05-19T23:43:47.656Z,44.79
2019-05-19T23:48:52.656Z,44.42
2019-05-19T23:53:56.495Z,44.97
2019-05-19T23:59:00.316Z,44.97
